sensor_id;sensor_type;location;lat;lon;timestamp;pressure;altitude;pressure_sealevel;temperature;humidity
20350;BME280;10332;50.208;18.988;2022-11-20T00:01:31;97754.03;;;-2.52;85.87
20350;BME280;10332;50.208;18.988;2022-11-20T00:04:00;97760.88;;;-2.54;85.56
20350;BME280;10332;50.208;18.988;2022-11-20T00:06:28;97758.28;;;-2.51;85.09
20350;BME280;10332;50.208;18.988;2022-11-20T00:08:59;97754.03;;;-2.52;84.62
20350;BME280;10332;50.208;18.988;2022-11-20T00:11:29;97741.28;;;-2.54;84.52
20350;BME280;10332;50.208;18.988;2022-11-20T00:13:59;97742.94;;;-2.51;84.46
20350;BME280;10332;50.208;18.988;2022-11-20T00:16:31;97741.22;;;-2.51;84.48
20350;BME280;10332;50.208;18.988;2022-11-20T00:18:58;97737.88;;;-2.54;85.47
20350;BME280;10332;50.208;18.988;2022-11-20T00:21:28;97735.28;;;-2.51;85.61
20350;BME280;10332;50.208;18.988;2022-11-20T00:23:57;97742.09;;;-2.52;85.60
20350;BME280;10332;50.208;18.988;2022-11-20T00:26:26;97734.50;;;-2.55;85.36
20350;BME280;10332;50.208;18.988;2022-11-20T00:28:57;97734.63;;;-2.61;86.08
20350;BME280;10332;50.208;18.988;2022-11-20T00:31:26;97733.72;;;-2.59;86.31
20350;BME280;10332;50.208;18.988;2022-11-20T00:33:53;97735.50;;;-2.61;86.82
20350;BME280;10332;50.208;18.988;2022-11-20T00:36:24;97725.38;;;-2.67;87.40
20350;BME280;10332;50.208;18.988;2022-11-20T00:38:55;97732.91;;;-2.59;87.41
20350;BME280;10332;50.208;18.988;2022-11-20T00:41:24;97729.47;;;-2.58;86.76
20350;BME280;10332;50.208;18.988;2022-11-20T00:43:53;97732.81;;;-2.56;86.40
20350;BME280;10332;50.208;18.988;2022-11-20T00:46:24;97736.41;;;-2.65;87.13
20350;BME280;10332;50.208;18.988;2022-11-20T00:48:52;97730.38;;;-2.62;86.97
20350;BME280;10332;50.208;18.988;2022-11-20T00:51:24;97736.31;;;-2.60;87.05
20350;BME280;10332;50.208;18.988;2022-11-20T00:53:56;97725.34;;;-2.65;87.20
20350;BME280;10332;50.208;18.988;2022-11-20T00:56:23;97730.38;;;-2.62;86.92
20350;BME280;10332;50.208;18.988;2022-11-20T00:58:51;97724.69;;;-2.73;87.44
20350;BME280;10332;50.208;18.988;2022-11-20T01:01:24;97723.91;;;-2.77;87.70
20350;BME280;10332;50.208;18.988;2022-11-20T01:03:55;97718.75;;;-2.75;87.95
20350;BME280;10332;50.208;18.988;2022-11-20T01:06:28;97714.81;;;-2.90;88.43
20350;BME280;10332;50.208;18.988;2022-11-20T01:09:00;97712.13;;;-2.84;88.41
20350;BME280;10332;50.208;18.988;2022-11-20T01:11:32;97709.59;;;-2.84;87.72
20350;BME280;10332;50.208;18.988;2022-11-20T01:14:02;97713.06;;;-2.87;87.70
20350;BME280;10332;50.208;18.988;2022-11-20T01:16:35;97710.47;;;-2.85;87.47
20350;BME280;10332;50.208;18.988;2022-11-20T01:19:06;97715.44;;;-2.80;87.16
20350;BME280;10332;50.208;18.988;2022-11-20T01:21:38;97711.22;;;-2.81;86.81
20350;BME280;10332;50.208;18.988;2022-11-20T01:24:10;97703.59;;;-2.83;86.65
20350;BME280;10332;50.208;18.988;2022-11-20T01:26:40;97705.19;;;-2.79;86.67
20350;BME280;10332;50.208;18.988;2022-11-20T01:29:28;97698.50;;;-2.83;86.79
20350;BME280;10332;50.208;18.988;2022-11-20T01:31:55;97700.94;;;-2.77;86.76
20350;BME280;10332;50.208;18.988;2022-11-20T01:34:23;97700.03;;;-2.76;86.76
20350;BME280;10332;50.208;18.988;2022-11-20T01:36:52;97699.22;;;-2.76;86.96
20350;BME280;10332;50.208;18.988;2022-11-20T01:39:25;97683.00;;;-2.75;86.89
20350;BME280;10332;50.208;18.988;2022-11-20T01:41:55;97682.97;;;-2.74;86.98
20350;BME280;10332;50.208;18.988;2022-11-20T01:44:57;97677.91;;;-2.75;86.74
20350;BME280;10332;50.208;18.988;2022-11-20T01:47:36;97678.78;;;-2.76;86.50
20350;BME280;10332;50.208;18.988;2022-11-20T01:50:26;97675.31;;;-2.74;86.24
20350;BME280;10332;50.208;18.988;2022-11-20T01:53:05;97672.00;;;-2.77;86.21
20350;BME280;10332;50.208;18.988;2022-11-20T01:55:42;97668.72;;;-2.84;86.36
20350;BME280;10332;50.208;18.988;2022-11-20T01:58:11;97672.94;;;-2.83;86.08
20350;BME280;10332;50.208;18.988;2022-11-20T02:00:40;97678.97;;;-2.86;86.18
20350;BME280;10332;50.208;18.988;2022-11-20T02:03:13;97683.41;;;-2.94;86.24
20350;BME280;10332;50.208;18.988;2022-11-20T02:05:56;97685.13;;;-2.94;86.13
20350;BME280;10332;50.208;18.988;2022-11-20T02:08:28;97688.78;;;-3.07;87.43
20350;BME280;10332;50.208;18.988;2022-11-20T02:10:56;97687.91;;;-3.06;86.98
20350;BME280;10332;50.208;18.988;2022-11-20T02:13:23;97688.09;;;-3.14;87.21
20350;BME280;10332;50.208;18.988;2022-11-20T02:16:37;97691.66;;;-3.23;87.80
20350;BME280;10332;50.208;18.988;2022-11-20T02:22:38;97693.19;;;-3.14;87.77
20350;BME280;10332;50.208;18.988;2022-11-20T02:25:06;97699.19;;;-3.17;88.13
20350;BME280;10332;50.208;18.988;2022-11-20T02:27:35;97699.06;;;-3.10;87.81
20350;BME280;10332;50.208;18.988;2022-11-20T02:30:07;97699.03;;;-3.09;87.64
20350;BME280;10332;50.208;18.988;2022-11-20T02:32:37;97707.50;;;-3.07;87.47
20350;BME280;10332;50.208;18.988;2022-11-20T02:37:51;97714.28;;;-3.04;86.94
20350;BME280;10332;50.208;18.988;2022-11-20T02:40:19;97716.63;;;-2.97;86.32
20350;BME280;10332;50.208;18.988;2022-11-20T02:42:47;97715.84;;;-2.99;86.53
20350;BME280;10332;50.208;18.988;2022-11-20T02:45:14;97720.97;;;-3.00;86.17
20350;BME280;10332;50.208;18.988;2022-11-20T02:47:42;97714.19;;;-3.01;86.33
20350;BME280;10332;50.208;18.988;2022-11-20T02:50:09;97714.31;;;-3.07;86.49
20350;BME280;10332;50.208;18.988;2022-11-20T02:52:37;97705.81;;;-3.08;87.40
20350;BME280;10332;50.208;18.988;2022-11-20T02:55:05;97710.94;;;-3.09;87.27
20350;BME280;10332;50.208;18.988;2022-11-20T02:57:33;97705.97;;;-3.16;87.41
20350;BME280;10332;50.208;18.988;2022-11-20T03:00:00;97704.25;;;-3.15;87.57
20350;BME280;10332;50.208;18.988;2022-11-20T03:02:32;97701.84;;;-3.21;87.62
20350;BME280;10332;50.208;18.988;2022-11-20T03:04:59;97706.88;;;-3.18;87.53
20350;BME280;10332;50.208;18.988;2022-11-20T03:07:27;97705.22;;;-3.21;88.04
20350;BME280;10332;50.208;18.988;2022-11-20T03:09:54;97694.97;;;-3.19;88.30
20350;BME280;10332;50.208;18.988;2022-11-20T03:12:22;97699.16;;;-3.15;88.04
20350;BME280;10332;50.208;18.988;2022-11-20T03:14:49;97700.81;;;-3.12;87.90
20350;BME280;10332;50.208;18.988;2022-11-20T03:17:19;97699.94;;;-3.11;87.61
20350;BME280;10332;50.208;18.988;2022-11-20T03:19:46;97705.78;;;-3.06;87.48
20350;BME280;10332;50.208;18.988;2022-11-20T03:22:14;97701.50;;;-3.04;87.46
20350;BME280;10332;50.208;18.988;2022-11-20T03:24:41;97704.94;;;-3.07;87.45
20350;BME280;10332;50.208;18.988;2022-11-20T03:27:09;97705.72;;;-3.03;87.54
20350;BME280;10332;50.208;18.988;2022-11-20T03:29:36;97710.88;;;-3.05;87.71
20350;BME280;10332;50.208;18.988;2022-11-20T03:32:04;97706.53;;;-3.01;87.59
20350;BME280;10332;50.208;18.988;2022-11-20T03:34:32;97700.63;;;-3.03;87.34
20350;BME280;10332;50.208;18.988;2022-11-20T03:36:59;97697.16;;;-3.01;87.32
20350;BME280;10332;50.208;18.988;2022-11-20T03:39:26;97696.28;;;-3.00;87.44
20350;BME280;10332;50.208;18.988;2022-11-20T03:41:54;97699.63;;;-2.96;87.26
20350;BME280;10332;50.208;18.988;2022-11-20T03:44:21;97702.13;;;-2.93;87.14
20350;BME280;10332;50.208;18.988;2022-11-20T03:46:49;97703.03;;;-2.96;87.34
20350;BME280;10332;50.208;18.988;2022-11-20T03:49:16;97707.16;;;-2.90;87.09
20350;BME280;10332;50.208;18.988;2022-11-20T03:51:44;97707.16;;;-2.90;86.71
20350;BME280;10332;50.208;18.988;2022-11-20T03:54:11;97699.47;;;-2.90;86.56
20350;BME280;10332;50.208;18.988;2022-11-20T03:56:38;97711.34;;;-2.88;86.48
20350;BME280;10332;50.208;18.988;2022-11-20T03:59:06;97706.28;;;-2.89;86.56
20350;BME280;10332;50.208;18.988;2022-11-20T04:01:36;97709.66;;;-2.89;86.03
20350;BME280;10332;50.208;18.988;2022-11-20T04:04:05;97714.81;;;-2.90;85.97
20350;BME280;10332;50.208;18.988;2022-11-20T04:06:37;97708.91;;;-2.92;85.88
20350;BME280;10332;50.208;18.988;2022-11-20T04:09:05;97698.94;;;-3.04;85.27
20350;BME280;10332;50.208;18.988;2022-11-20T04:11:37;97695.56;;;-3.06;85.17
20350;BME280;10332;50.208;18.988;2022-11-20T04:14:12;97696.47;;;-3.09;85.24
20350;BME280;10332;50.208;18.988;2022-11-20T04:16:40;97693.19;;;-3.14;86.12
20350;BME280;10332;50.208;18.988;2022-11-20T04:19:14;97678.72;;;-3.15;86.22
20350;BME280;10332;50.208;18.988;2022-11-20T04:21:43;97681.16;;;-3.09;86.23
20350;BME280;10332;50.208;18.988;2022-11-20T04:24:11;97681.09;;;-3.06;86.25
20350;BME280;10332;50.208;18.988;2022-11-20T04:26:40;97682.72;;;-3.02;85.87
20350;BME280;10332;50.208;18.988;2022-11-20T04:29:11;97679.28;;;-3.01;85.64
20350;BME280;10332;50.208;18.988;2022-11-20T04:31:39;97671.59;;;-2.99;85.76
20350;BME280;10332;50.208;18.988;2022-11-20T04:34:07;97672.41;;;-2.97;85.35
20350;BME280;10332;50.208;18.988;2022-11-20T04:36:35;97670.88;;;-3.04;85.41
20350;BME280;10332;50.208;18.988;2022-11-20T04:39:05;97671.75;;;-3.05;85.03
20350;BME280;10332;50.208;18.988;2022-11-20T04:41:36;97673.34;;;-3.01;85.16
20350;BME280;10332;50.208;18.988;2022-11-20T04:44:05;97667.41;;;-3.02;84.61
20350;BME280;10332;50.208;18.988;2022-11-20T04:46:37;97669.91;;;-3.00;84.46
20350;BME280;10332;50.208;18.988;2022-11-20T04:49:06;97664.81;;;-3.00;84.13
20350;BME280;10332;50.208;18.988;2022-11-20T04:51:34;97667.38;;;-3.00;84.15
20350;BME280;10332;50.208;18.988;2022-11-20T04:54:01;97665.69;;;-3.01;83.90
20350;BME280;10332;50.208;18.988;2022-11-20T04:56:29;97659.75;;;-3.02;83.58
20350;BME280;10332;50.208;18.988;2022-11-20T04:59:01;97650.41;;;-3.03;83.31
20350;BME280;10332;50.208;18.988;2022-11-20T05:01:29;97657.25;;;-3.05;83.06
20350;BME280;10332;50.208;18.988;2022-11-20T05:03:57;97651.31;;;-3.07;82.80
20350;BME280;10332;50.208;18.988;2022-11-20T05:06:25;97652.25;;;-3.09;82.76
20350;BME280;10332;50.208;18.988;2022-11-20T05:08:52;97653.91;;;-3.08;82.69
20350;BME280;10332;50.208;18.988;2022-11-20T05:11:21;97645.53;;;-3.15;82.26
20350;BME280;10332;50.208;18.988;2022-11-20T05:13:50;97643.81;;;-3.13;82.03
20350;BME280;10332;50.208;18.988;2022-11-20T05:16:23;97651.53;;;-3.16;82.03
20350;BME280;10332;50.208;18.988;2022-11-20T05:18:54;97646.41;;;-3.16;81.91
20350;BME280;10332;50.208;18.988;2022-11-20T05:21:22;97641.41;;;-3.21;81.48
20350;BME280;10332;50.208;18.988;2022-11-20T05:23:49;97644.09;;;-3.27;81.27
20350;BME280;10332;50.208;18.988;2022-11-20T05:26:21;97629.19;;;-3.47;81.66
20350;BME280;10332;50.208;18.988;2022-11-20T05:28:51;97626.06;;;-3.61;83.49
20350;BME280;10332;50.208;18.988;2022-11-20T05:31:22;97634.50;;;-3.57;84.35
20350;BME280;10332;50.208;18.988;2022-11-20T05:33:56;97633.88;;;-3.70;85.80
20350;BME280;10332;50.208;18.988;2022-11-20T05:36:24;97632.00;;;-3.59;85.82
20350;BME280;10332;50.208;18.988;2022-11-20T05:38:52;97630.75;;;-3.83;87.84
20350;BME280;10332;50.208;18.988;2022-11-20T05:41:27;97630.50;;;-3.71;86.95
20350;BME280;10332;50.208;18.988;2022-11-20T05:43:56;97615.19;;;-3.71;87.25
20350;BME280;10332;50.208;18.988;2022-11-20T05:46:25;97624.53;;;-3.69;86.66
20350;BME280;10332;50.208;18.988;2022-11-20T05:48:57;97620.25;;;-3.67;86.18
20350;BME280;10332;50.208;18.988;2022-11-20T05:51:25;97622.75;;;-3.64;86.11
20350;BME280;10332;50.208;18.988;2022-11-20T05:53:53;97625.38;;;-3.67;86.33
20350;BME280;10332;50.208;18.988;2022-11-20T05:56:22;97624.38;;;-3.62;85.90
20350;BME280;10332;50.208;18.988;2022-11-20T05:58:49;97632.00;;;-3.60;86.32
20350;BME280;10332;50.208;18.988;2022-11-20T06:01:24;97622.66;;;-3.61;86.34
20350;BME280;10332;50.208;18.988;2022-11-20T06:03:53;97620.84;;;-3.55;86.62
20350;BME280;10332;50.208;18.988;2022-11-20T06:06:22;97618.50;;;-3.65;87.37
20350;BME280;10332;50.208;18.988;2022-11-20T06:08:49;97619.34;;;-3.65;87.59
20350;BME280;10332;50.208;18.988;2022-11-20T06:11:17;97618.25;;;-3.53;88.23
20350;BME280;10332;50.208;18.988;2022-11-20T06:13:46;97625.78;;;-3.46;87.45
20350;BME280;10332;50.208;18.988;2022-11-20T06:16:17;97630.94;;;-3.49;87.26
20350;BME280;10332;50.208;18.988;2022-11-20T06:18:46;97638.50;;;-3.44;86.61
20350;BME280;10332;50.208;18.988;2022-11-20T06:21:20;97635.22;;;-3.51;86.56
20350;BME280;10332;50.208;18.988;2022-11-20T06:23:49;97631.72;;;-3.45;86.50
20350;BME280;10332;50.208;18.988;2022-11-20T06:26:24;97628.34;;;-3.47;86.92
20350;BME280;10332;50.208;18.988;2022-11-20T06:28:52;97624.13;;;-3.48;86.42
20350;BME280;10332;50.208;18.988;2022-11-20T06:31:23;97629.88;;;-3.38;86.58
20350;BME280;10332;50.208;18.988;2022-11-20T06:33:52;97636.63;;;-3.36;86.52
20350;BME280;10332;50.208;18.988;2022-11-20T06:36:22;97637.28;;;-3.26;86.70
20350;BME280;10332;50.208;18.988;2022-11-20T06:38:50;97632.13;;;-3.25;86.44
20350;BME280;10332;50.208;18.988;2022-11-20T06:41:22;97620.06;;;-3.17;86.57
20350;BME280;10332;50.208;18.988;2022-11-20T06:43:50;97621.53;;;-3.05;86.61
20350;BME280;10332;50.208;18.988;2022-11-20T06:46:19;97610.31;;;-2.99;86.10
20350;BME280;10332;50.208;18.988;2022-11-20T06:48:48;97605.75;;;-2.85;86.40
20350;BME280;10332;50.208;18.988;2022-11-20T06:51:16;97611.38;;;-2.71;85.68
20350;BME280;10332;50.208;18.988;2022-11-20T06:53:43;97604.34;;;-2.61;85.49
20350;BME280;10332;50.208;18.988;2022-11-20T06:56:11;97609.25;;;-2.53;85.09
20350;BME280;10332;50.208;18.988;2022-11-20T06:58:38;97601.25;;;-2.38;84.90
20350;BME280;10332;50.208;18.988;2022-11-20T07:01:10;97605.38;;;-2.33;84.73
20350;BME280;10332;50.208;18.988;2022-11-20T07:03:39;97605.84;;;-2.18;84.35
20350;BME280;10332;50.208;18.988;2022-11-20T07:06:08;97598.13;;;-2.17;84.61
20350;BME280;10332;50.208;18.988;2022-11-20T07:08:36;97597.63;;;-1.97;84.25
20350;BME280;10332;50.208;18.988;2022-11-20T07:11:06;97600.69;;;-1.84;83.47
20350;BME280;10332;50.208;18.988;2022-11-20T07:13:34;97599.72;;;-1.79;83.25
20350;BME280;10332;50.208;18.988;2022-11-20T07:16:05;97601.19;;;-1.70;83.03
20350;BME280;10332;50.208;18.988;2022-11-20T07:18:33;97586.44;;;-1.62;82.38
20350;BME280;10332;50.208;18.988;2022-11-20T07:21:10;97594.63;;;-1.49;82.57
20350;BME280;10332;50.208;18.988;2022-11-20T07:23:37;97587.34;;;-1.33;82.34
20350;BME280;10332;50.208;18.988;2022-11-20T07:26:08;97596.34;;;-1.20;82.17
20350;BME280;10332;50.208;18.988;2022-11-20T07:28:36;97595.38;;;-1.16;81.65
20350;BME280;10332;50.208;18.988;2022-11-20T07:31:05;97601.69;;;-1.00;81.34
20350;BME280;10332;50.208;18.988;2022-11-20T07:33:34;97596.28;;;-0.91;81.13
20350;BME280;10332;50.208;18.988;2022-11-20T07:36:02;97600.47;;;-0.87;80.86
20350;BME280;10332;50.208;18.988;2022-11-20T07:38:29;97606.25;;;-0.81;81.16
20350;BME280;10332;50.208;18.988;2022-11-20T07:40:57;97598.00;;;-0.90;81.60
20350;BME280;10332;50.208;18.988;2022-11-20T07:43:25;97592.63;;;-0.55;81.20
20350;BME280;10332;50.208;18.988;2022-11-20T07:45:56;97597.16;;;-0.36;80.55
20350;BME280;10332;50.208;18.988;2022-11-20T07:48:24;97602.34;;;-0.12;80.20
20350;BME280;10332;50.208;18.988;2022-11-20T07:50:56;97601.34;;;0.17;79.63
20350;BME280;10332;50.208;18.988;2022-11-20T07:53:24;97609.88;;;0.42;78.88
20350;BME280;10332;50.208;18.988;2022-11-20T07:55:52;97612.44;;;0.89;77.89
20350;BME280;10332;50.208;18.988;2022-11-20T07:58:20;97610.03;;;1.30;77.08
20350;BME280;10332;50.208;18.988;2022-11-20T08:00:48;97614.97;;;1.34;75.35
20350;BME280;10332;50.208;18.988;2022-11-20T08:03:16;97619.84;;;1.42;74.81
20350;BME280;10332;50.208;18.988;2022-11-20T08:05:51;97622.56;;;1.81;75.06
20350;BME280;10332;50.208;18.988;2022-11-20T08:08:18;97615.75;;;2.21;74.28
20350;BME280;10332;50.208;18.988;2022-11-20T08:10:46;97612.75;;;2.50;72.83
20350;BME280;10332;50.208;18.988;2022-11-20T08:13:13;97617.38;;;2.63;71.12
20350;BME280;10332;50.208;18.988;2022-11-20T08:15:59;97617.16;;;3.06;69.58
20350;BME280;10332;50.208;18.988;2022-11-20T08:18:26;97619.75;;;3.42;68.12
20350;BME280;10332;50.208;18.988;2022-11-20T08:21:03;97619.78;;;3.60;68.07
20350;BME280;10332;50.208;18.988;2022-11-20T08:23:31;97627.31;;;3.09;66.35
20350;BME280;10332;50.208;18.988;2022-11-20T08:25:58;97632.81;;;2.83;67.58
20350;BME280;10332;50.208;18.988;2022-11-20T08:28:25;97635.28;;;2.66;67.60
20350;BME280;10332;50.208;18.988;2022-11-20T08:31:01;97629.56;;;2.59;68.66
20350;BME280;10332;50.208;18.988;2022-11-20T08:33:29;97635.09;;;2.50;69.64
20350;BME280;10332;50.208;18.988;2022-11-20T08:36:02;97630.66;;;2.33;69.33
20350;BME280;10332;50.208;18.988;2022-11-20T08:38:31;97640.06;;;2.14;69.71
20350;BME280;10332;50.208;18.988;2022-11-20T08:41:02;97639.75;;;2.01;69.86
20350;BME280;10332;50.208;18.988;2022-11-20T08:43:53;97640.75;;;1.77;70.53
20350;BME280;10332;50.208;18.988;2022-11-20T08:46:23;97641.59;;;1.77;70.98
20350;BME280;10332;50.208;18.988;2022-11-20T08:48:52;97646.28;;;1.46;71.03
20350;BME280;10332;50.208;18.988;2022-11-20T08:51:20;97638.84;;;1.60;71.70
20350;BME280;10332;50.208;18.988;2022-11-20T08:53:47;97634.84;;;1.53;72.39
20350;BME280;10332;50.208;18.988;2022-11-20T08:56:18;97645.91;;;1.55;72.07
20350;BME280;10332;50.208;18.988;2022-11-20T08:58:45;97631.03;;;1.63;72.37
20350;BME280;10332;50.208;18.988;2022-11-20T09:01:33;97632.44;;;1.70;71.67
20350;BME280;10332;50.208;18.988;2022-11-20T09:04:00;97633.22;;;1.72;71.20
20350;BME280;10332;50.208;18.988;2022-11-20T09:06:27;97629.72;;;1.95;70.18
20350;BME280;10332;50.208;18.988;2022-11-20T09:08:55;97621.50;;;2.07;68.77
20350;BME280;10332;50.208;18.988;2022-11-20T09:11:29;97631.47;;;2.74;68.73
20350;BME280;10332;50.208;18.988;2022-11-20T09:13:57;97622.41;;;2.84;67.93
20350;BME280;10332;50.208;18.988;2022-11-20T09:16:24;97618.81;;;2.89;67.14
20350;BME280;10332;50.208;18.988;2022-11-20T09:18:52;97624.50;;;2.95;67.42
20350;BME280;10332;50.208;18.988;2022-11-20T09:21:39;97622.06;;;3.11;68.01
20350;BME280;10332;50.208;18.988;2022-11-20T09:24:07;97618.25;;;3.20;66.57
20350;BME280;10332;50.208;18.988;2022-11-20T09:26:34;97633.97;;;3.32;66.79
20350;BME280;10332;50.208;18.988;2022-11-20T09:29:02;97627.28;;;3.28;65.94
20350;BME280;10332;50.208;18.988;2022-11-20T09:31:30;97626.63;;;3.25;66.23
20350;BME280;10332;50.208;18.988;2022-11-20T09:33:57;97626.53;;;2.89;65.08
20350;BME280;10332;50.208;18.988;2022-11-20T09:36:25;97626.88;;;2.62;65.45
20350;BME280;10332;50.208;18.988;2022-11-20T09:38:52;97623.44;;;2.62;65.80
20350;BME280;10332;50.208;18.988;2022-11-20T09:44:31;97619.25;;;2.59;65.67
20350;BME280;10332;50.208;18.988;2022-11-20T09:51:48;97614.53;;;3.44;64.74
20350;BME280;10332;50.208;18.988;2022-11-20T09:54:17;97608.13;;;3.70;64.63
20350;BME280;10332;50.208;18.988;2022-11-20T09:56:58;97605.22;;;3.76;63.87
20350;BME280;10332;50.208;18.988;2022-11-20T09:59:41;97600.38;;;3.70;64.22
20350;BME280;10332;50.208;18.988;2022-11-20T10:05:15;97598.47;;;3.74;64.47
20350;BME280;10332;50.208;18.988;2022-11-20T10:08:19;97605.94;;;3.44;64.08
20350;BME280;10332;50.208;18.988;2022-11-20T10:20:16;97587.97;;;3.59;65.49
20350;BME280;10332;50.208;18.988;2022-11-20T10:23:14;97574.41;;;4.08;64.55
20350;BME280;10332;50.208;18.988;2022-11-20T10:26:06;97576.66;;;5.11;62.04
20350;BME280;10332;50.208;18.988;2022-11-20T10:28:53;97579.25;;;5.89;59.66
20350;BME280;10332;50.208;18.988;2022-11-20T10:31:31;97582.16;;;6.86;57.15
20350;BME280;10332;50.208;18.988;2022-11-20T10:34:15;97572.31;;;7.32;55.84
20350;BME280;10332;50.208;18.988;2022-11-20T10:37:02;97562.91;;;7.17;55.04
20350;BME280;10332;50.208;18.988;2022-11-20T10:39:58;97559.38;;;7.18;54.72
20350;BME280;10332;50.208;18.988;2022-11-20T10:42:56;97557.56;;;7.59;52.33
20350;BME280;10332;50.208;18.988;2022-11-20T10:48:10;97557.72;;;8.74;49.98
20350;BME280;10332;50.208;18.988;2022-11-20T10:50:53;97550.50;;;8.26;49.22
20350;BME280;10332;50.208;18.988;2022-11-20T10:56:49;97538.44;;;7.48;51.29
20350;BME280;10332;50.208;18.988;2022-11-20T11:01:58;97540.38;;;7.44;nan
20350;BME280;10332;50.208;18.988;2022-11-20T11:04:46;97538.28;;;7.76;51.73
20350;BME280;10332;50.208;18.988;2022-11-20T11:07:27;97537.66;;;8.63;50.02
20350;BME280;10332;50.208;18.988;2022-11-20T11:09:57;97526.72;;;9.90;47.01
20350;BME280;10332;50.208;18.988;2022-11-20T11:12:28;97520.03;;;14.07;41.43
20350;BME280;10332;50.208;18.988;2022-11-20T11:14:57;97507.88;;;17.18;35.84
20350;BME280;10332;50.208;18.988;2022-11-20T11:17:29;97505.41;;;19.81;31.28
20350;BME280;10332;50.208;18.988;2022-11-20T11:20:20;97517.72;;;19.04;29.77
20350;BME280;10332;50.208;18.988;2022-11-20T11:22:57;97513.41;;;19.11;30.53
20350;BME280;10332;50.208;18.988;2022-11-20T11:25:30;97511.31;;;21.68;28.06
20350;BME280;10332;50.208;18.988;2022-11-20T11:28:04;97512.47;;;19.66;28.56
20350;BME280;10332;50.208;18.988;2022-11-20T11:30:44;97510.25;;;18.60;29.65
20350;BME280;10332;50.208;18.988;2022-11-20T11:33:30;97521.13;;;17.43;30.55
20350;BME280;10332;50.208;18.988;2022-11-20T11:36:04;97517.31;;;16.35;31.20
20350;BME280;10332;50.208;18.988;2022-11-20T11:38:43;97529.06;;;14.41;33.85
20350;BME280;10332;50.208;18.988;2022-11-20T11:41:25;97522.81;;;13.96;34.75
20350;BME280;10332;50.208;18.988;2022-11-20T11:44:16;97520.06;;;12.99;36.81
20350;BME280;10332;50.208;18.988;2022-11-20T11:47:06;97518.06;;;11.68;39.22
20350;BME280;10332;50.208;18.988;2022-11-20T11:49:37;97512.13;;;11.98;39.12
20350;BME280;10332;50.208;18.988;2022-11-20T11:52:18;97514.69;;;12.09;39.65
20350;BME280;10332;50.208;18.988;2022-11-20T11:55:00;97497.53;;;12.46;39.11
20350;BME280;10332;50.208;18.988;2022-11-20T12:00:28;97491.13;;;12.09;40.12
20350;BME280;10332;50.208;18.988;2022-11-20T12:03:19;97491.47;;;11.62;40.58
20350;BME280;10332;50.208;18.988;2022-11-20T12:05:59;97508.69;;;10.78;42.31
20350;BME280;10332;50.208;18.988;2022-11-20T12:08:42;97498.47;;;10.42;43.31
20350;BME280;10332;50.208;18.988;2022-11-20T12:11:20;97493.84;;;10.68;43.04
20350;BME280;10332;50.208;18.988;2022-11-20T12:13:57;97486.50;;;10.73;43.08
20350;BME280;10332;50.208;18.988;2022-11-20T12:16:25;97495.06;;;10.64;43.49
20350;BME280;10332;50.208;18.988;2022-11-20T12:18:53;97496.78;;;10.18;43.53
20350;BME280;10332;50.208;18.988;2022-11-20T12:24:15;97478.78;;;9.69;44.79
20350;BME280;10332;50.208;18.988;2022-11-20T12:30:21;97462.50;;;13.67;39.01
20350;BME280;10332;50.208;18.988;2022-11-20T12:33:22;97460.22;;;14.57;36.90
20350;BME280;10332;50.208;18.988;2022-11-20T12:39:07;97435.72;;;19.58;30.23
20350;BME280;10332;50.208;18.988;2022-11-20T12:41:54;97430.75;;;20.89;28.68
20350;BME280;10332;50.208;18.988;2022-11-20T12:57:18;97419.44;;;23.12;25.12
20350;BME280;10332;50.208;18.988;2022-11-20T13:00:15;97426.34;;;22.24;24.64
20350;BME280;10332;50.208;18.988;2022-11-20T13:06:18;97429.19;;;22.01;25.81
20350;BME280;10332;50.208;18.988;2022-11-20T13:08:56;97415.34;;;22.34;25.58
20350;BME280;10332;50.208;18.988;2022-11-20T13:17:26;97416.47;;;20.31;26.38
20350;BME280;10332;50.208;18.988;2022-11-20T13:19:57;97417.66;;;20.28;27.18
20350;BME280;10332;50.208;18.988;2022-11-20T13:22:49;97407.59;;;20.38;26.84
20350;BME280;10332;50.208;18.988;2022-11-20T13:25:37;97412.72;;;19.96;27.25
20350;BME280;10332;50.208;18.988;2022-11-20T13:28:29;97407.09;;;19.30;27.88
20350;BME280;10332;50.208;18.988;2022-11-20T13:30:58;97401.31;;;18.33;29.05
20350;BME280;10332;50.208;18.988;2022-11-20T13:33:36;97403.16;;;16.60;30.75
20350;BME280;10332;50.208;18.988;2022-11-20T13:36:22;97406.31;;;14.98;33.21
20350;BME280;10332;50.208;18.988;2022-11-20T13:38:55;97405.47;;;13.59;35.29
20350;BME280;10332;50.208;18.988;2022-11-20T13:41:33;97399.81;;;13.05;36.25
20350;BME280;10332;50.208;18.988;2022-11-20T13:46:43;97407.28;;;10.40;41.63
20350;BME280;10332;50.208;18.988;2022-11-20T13:49:39;97405.00;;;9.80;42.78
20350;BME280;10332;50.208;18.988;2022-11-20T13:52:43;97408.47;;;8.62;45.76
20350;BME280;10332;50.208;18.988;2022-11-20T13:55:51;97397.50;;;8.33;46.04
20350;BME280;10332;50.208;18.988;2022-11-20T14:01:21;97389.47;;;7.61;47.92
20350;BME280;10332;50.208;18.988;2022-11-20T14:03:51;97390.38;;;7.35;49.62
20350;BME280;10332;50.208;18.988;2022-11-20T14:06:45;97388.50;;;6.85;51.56
20350;BME280;10332;50.208;18.988;2022-11-20T14:11:53;97385.66;;;6.48;52.34
20350;BME280;10332;50.208;18.988;2022-11-20T14:14:24;97388.75;;;6.40;52.48
20350;BME280;10332;50.208;18.988;2022-11-20T14:17:19;97393.22;;;6.24;53.61
20350;BME280;10332;50.208;18.988;2022-11-20T14:19:50;97390.56;;;6.11;54.41
20350;BME280;10332;50.208;18.988;2022-11-20T14:22:27;97391.59;;;5.94;55.02
20350;BME280;10332;50.208;18.988;2022-11-20T14:25:24;97388.31;;;5.77;55.52
20350;BME280;10332;50.208;18.988;2022-11-20T14:28:02;97389.97;;;5.49;57.85
20350;BME280;10332;50.208;18.988;2022-11-20T14:30:44;97394.47;;;5.31;58.66
20350;BME280;10332;50.208;18.988;2022-11-20T14:33:14;97395.72;;;5.24;59.33
20350;BME280;10332;50.208;18.988;2022-11-20T14:35:53;97386.28;;;4.93;60.76
20350;BME280;10332;50.208;18.988;2022-11-20T14:38:28;97374.34;;;4.76;61.39
20350;BME280;10332;50.208;18.988;2022-11-20T14:41:16;97377.03;;;4.43;63.41